sensor_id;sensor_type;location;lat;lon;timestamp;pressure;altitude;pressure_sealevel;temperature;humidity
49216;BME280;45943;53.148;8.204;2024-03-29T00:00:57;99275.03;;;11.64;91.73
49216;BME280;45943;53.148;8.204;2024-03-29T00:03:25;99276.03;;;11.63;92.44
49216;BME280;45943;53.148;8.204;2024-03-29T00:05:51;99278.88;;;11.69;91.48
49216;BME280;45943;53.148;8.204;2024-03-29T00:08:17;99274.84;;;11.65;91.92
49216;BME280;45943;53.148;8.204;2024-03-29T00:10:43;99275.88;;;11.64;92.21
49216;BME280;45943;53.148;8.204;2024-03-29T00:13:12;99267.47;;;11.67;92.31
49216;BME280;45943;53.148;8.204;2024-03-29T00:15:38;99277.06;;;11.54;93.70
49216;BME280;45943;53.148;8.204;2024-03-29T00:18:06;99277.88;;;11.54;93.04
49216;BME280;45943;53.148;8.204;2024-03-29T00:20:32;99273.53;;;11.61;93.33
49216;BME280;45943;53.148;8.204;2024-03-29T00:22:58;99268.81;;;11.55;93.53
49216;BME280;45943;53.148;8.204;2024-03-29T00:25:24;99265.63;;;11.60;92.97
49216;BME280;45943;53.148;8.204;2024-03-29T00:27:50;99273.00;;;11.66;92.80
49216;BME280;45943;53.148;8.204;2024-03-29T00:30:16;99270.50;;;11.64;92.21
49216;BME280;45943;53.148;8.204;2024-03-29T00:32:42;99270.00;;;11.61;92.43
49216;BME280;45943;53.148;8.204;2024-03-29T00:35:08;99272.00;;;11.67;92.95
49216;BME280;45943;53.148;8.204;2024-03-29T00:37:34;99265.47;;;11.61;92.40
49216;BME280;45943;53.148;8.204;2024-03-29T00:40:00;99273.53;;;11.53;92.81
49216;BME280;45943;53.148;8.204;2024-03-29T00:42:26;99275.53;;;11.59;92.22
49216;BME280;45943;53.148;8.204;2024-03-29T00:44:52;99275.88;;;11.56;91.42
49216;BME280;45943;53.148;8.204;2024-03-29T00:47:18;99280.56;;;11.54;92.64
49216;BME280;45943;53.148;8.204;2024-03-29T00:49:44;99273.19;;;11.56;92.99
49216;BME280;45943;53.148;8.204;2024-03-29T00:52:10;99272.88;;;11.51;92.92
49216;BME280;45943;53.148;8.204;2024-03-29T00:54:36;99277.03;;;11.45;92.69
49216;BME280;45943;53.148;8.204;2024-03-29T00:57:02;99281.91;;;11.50;93.85
49216;BME280;45943;53.148;8.204;2024-03-29T00:59:28;99290.13;;;11.40;93.96
49216;BME280;45943;53.148;8.204;2024-03-29T01:01:54;99288.78;;;11.44;93.25
49216;BME280;45943;53.148;8.204;2024-03-29T01:04:20;99290.81;;;11.34;93.81
49216;BME280;45943;53.148;8.204;2024-03-29T01:06:46;99286.94;;;11.37;94.83
49216;BME280;45943;53.148;8.204;2024-03-29T01:09:12;99286.59;;;11.40;94.40
49216;BME280;45943;53.148;8.204;2024-03-29T01:11:38;99296.31;;;11.25;94.85
49216;BME280;45943;53.148;8.204;2024-03-29T01:14:04;99289.44;;;11.30;95.35
49216;BME280;45943;53.148;8.204;2024-03-29T01:16:31;99290.97;;;11.25;95.84
49216;BME280;45943;53.148;8.204;2024-03-29T01:18:58;99296.50;;;11.31;95.46
49216;BME280;45943;53.148;8.204;2024-03-29T01:21:25;99298.34;;;11.23;95.54
49216;BME280;45943;53.148;8.204;2024-03-29T01:23:52;99295.13;;;11.19;96.58
49216;BME280;45943;53.148;8.204;2024-03-29T01:26:18;99298.34;;;11.23;95.81
49216;BME280;45943;53.148;8.204;2024-03-29T01:28:44;99300.00;;;11.24;95.71
49216;BME280;45943;53.148;8.204;2024-03-29T01:31:11;99300.31;;;11.20;95.05
49216;BME280;45943;53.148;8.204;2024-03-29T01:33:40;99297.97;;;11.17;94.71
49216;BME280;45943;53.148;8.204;2024-03-29T01:36:07;99296.81;;;11.28;94.64
49216;BME280;45943;53.148;8.204;2024-03-29T01:38:33;99294.81;;;11.30;93.71
49216;BME280;45943;53.148;8.204;2024-03-29T01:40:59;99287.28;;;11.42;92.29
49216;BME280;45943;53.148;8.204;2024-03-29T01:43:26;99296.84;;;11.44;92.44
49216;BME280;45943;53.148;8.204;2024-03-29T01:45:53;99296.50;;;11.39;92.13
49216;BME280;45943;53.148;8.204;2024-03-29T01:48:24;99296.19;;;11.42;91.86
49216;BME280;45943;53.148;8.204;2024-03-29T01:50:51;99299.69;;;11.35;91.20
49216;BME280;45943;53.148;8.204;2024-03-29T01:53:20;99300.34;;;11.29;91.60
49216;BME280;45943;53.148;8.204;2024-03-29T01:55:46;99298.34;;;11.31;92.77
49216;BME280;45943;53.148;8.204;2024-03-29T01:58:12;99293.00;;;11.31;91.72
49216;BME280;45943;53.148;8.204;2024-03-29T02:00:53;99296.19;;;11.42;91.02
49216;BME280;45943;53.148;8.204;2024-03-29T02:03:20;99295.00;;;11.45;90.54
49216;BME280;45943;53.148;8.204;2024-03-29T02:05:47;99310.09;;;11.38;90.64
49216;BME280;45943;53.148;8.204;2024-03-29T02:08:15;99300.16;;;11.30;92.03
49216;BME280;45943;53.148;8.204;2024-03-29T02:10:42;99305.22;;;11.33;91.36
49216;BME280;45943;53.148;8.204;2024-03-29T02:13:09;99297.34;;;11.40;90.89
49216;BME280;45943;53.148;8.204;2024-03-29T02:15:35;99305.91;;;11.35;91.75
49216;BME280;45943;53.148;8.204;2024-03-29T02:18:01;99316.78;;;11.26;91.94
49216;BME280;45943;53.148;8.204;2024-03-29T02:20:27;99311.06;;;11.20;92.42
49216;BME280;45943;53.148;8.204;2024-03-29T02:22:56;99312.75;;;11.30;91.80
49216;BME280;45943;53.148;8.204;2024-03-29T02:25:25;99312.44;;;11.49;90.40
49216;BME280;45943;53.148;8.204;2024-03-29T02:27:51;99309.06;;;11.39;90.29
49216;BME280;45943;53.148;8.204;2024-03-29T02:30:18;99304.72;;;11.38;91.02
49216;BME280;45943;53.148;8.204;2024-03-29T02:32:44;99304.72;;;11.38;90.42
49216;BME280;45943;53.148;8.204;2024-03-29T02:35:11;99299.19;;;11.39;89.78
49216;BME280;45943;53.148;8.204;2024-03-29T02:37:37;99298.50;;;11.29;91.57
49216;BME280;45943;53.148;8.204;2024-03-29T02:40:03;99284.41;;;11.35;90.48
49216;BME280;45943;53.148;8.204;2024-03-29T02:42:30;99288.44;;;11.39;90.23
49216;BME280;45943;53.148;8.204;2024-03-29T02:44:57;99284.44;;;11.43;90.12
49216;BME280;45943;53.148;8.204;2024-03-29T02:47:23;99279.06;;;11.43;88.93
49216;BME280;45943;53.148;8.204;2024-03-29T02:49:49;99269.66;;;11.31;88.64
49216;BME280;45943;53.148;8.204;2024-03-29T02:52:15;99275.53;;;11.35;88.76
49216;BME280;45943;53.148;8.204;2024-03-29T02:54:41;99284.41;;;11.19;89.10
49216;BME280;45943;53.148;8.204;2024-03-29T02:57:07;99275.53;;;11.27;89.84
49216;BME280;45943;53.148;8.204;2024-03-29T02:59:33;99285.22;;;11.19;90.17
49216;BME280;45943;53.148;8.204;2024-03-29T03:01:59;99276.88;;;11.31;88.56
49216;BME280;45943;53.148;8.204;2024-03-29T03:04:25;99267.47;;;11.27;88.35
49216;BME280;45943;53.148;8.204;2024-03-29T03:06:51;99255.72;;;11.28;87.48
49216;BME280;45943;53.148;8.204;2024-03-29T03:09:17;99266.97;;;11.15;87.47
49216;BME280;45943;53.148;8.204;2024-03-29T03:12:01;99268.66;;;11.24;87.31
49216;BME280;45943;53.148;8.204;2024-03-29T03:14:27;99274.19;;;11.23;87.28
49216;BME280;45943;53.148;8.204;2024-03-29T03:16:53;99286.09;;;11.28;87.91
49216;BME280;45943;53.148;8.204;2024-03-29T03:19:19;99283.94;;;11.32;86.76
49216;BME280;45943;53.148;8.204;2024-03-29T03:21:45;99276.19;;;11.37;85.90
49216;BME280;45943;53.148;8.204;2024-03-29T03:24:11;99290.81;;;11.34;86.38
49216;BME280;45943;53.148;8.204;2024-03-29T03:26:40;99282.75;;;11.34;86.50
49216;BME280;45943;53.148;8.204;2024-03-29T03:29:06;99282.06;;;11.24;86.62
49216;BME280;45943;53.148;8.204;2024-03-29T03:31:33;99281.22;;;11.24;87.34
49216;BME280;45943;53.148;8.204;2024-03-29T03:33:59;99286.06;;;11.20;87.30
49216;BME280;45943;53.148;8.204;2024-03-29T03:36:25;99280.38;;;11.23;86.38
49216;BME280;45943;53.148;8.204;2024-03-29T03:38:51;99283.06;;;11.23;86.82
49216;BME280;45943;53.148;8.204;2024-03-29T03:41:17;99284.91;;;11.23;86.69
49216;BME280;45943;53.148;8.204;2024-03-29T03:43:43;99275.88;;;11.24;86.87
49216;BME280;45943;53.148;8.204;2024-03-29T03:46:09;99282.72;;;11.18;87.07
49216;BME280;45943;53.148;8.204;2024-03-29T03:48:35;99276.34;;;11.19;87.17
49216;BME280;45943;53.148;8.204;2024-03-29T03:51:01;99275.50;;;11.18;86.42
49216;BME280;45943;53.148;8.204;2024-03-29T03:53:27;99281.22;;;11.24;86.21
49216;BME280;45943;53.148;8.204;2024-03-29T03:55:53;99284.06;;;11.14;86.39
49216;BME280;45943;53.148;8.204;2024-03-29T03:58:19;99268.47;;;11.26;85.70
49216;BME280;45943;53.148;8.204;2024-03-29T04:00:45;99259.75;;;11.24;85.47
49216;BME280;45943;53.148;8.204;2024-03-29T04:03:11;99266.63;;;11.26;85.90
49216;BME280;45943;53.148;8.204;2024-03-29T04:05:37;99261.94;;;11.28;85.52
49216;BME280;45943;53.148;8.204;2024-03-29T04:08:04;99262.94;;;11.35;84.97
49216;BME280;45943;53.148;8.204;2024-03-29T04:10:30;99274.53;;;11.36;85.28
49216;BME280;45943;53.148;8.204;2024-03-29T04:12:56;99268.66;;;11.24;85.38
49216;BME280;45943;53.148;8.204;2024-03-29T04:15:22;99267.47;;;11.27;85.48
49216;BME280;45943;53.148;8.204;2024-03-29T04:17:48;99276.72;;;11.32;84.93
49216;BME280;45943;53.148;8.204;2024-03-29T04:20:14;99276.72;;;11.32;84.54
49216;BME280;45943;53.148;8.204;2024-03-29T04:22:40;99280.91;;;11.35;84.53
49216;BME280;45943;53.148;8.204;2024-03-29T04:25:06;99289.63;;;11.37;83.79
49216;BME280;45943;53.148;8.204;2024-03-29T04:27:32;99285.25;;;11.36;83.85
49216;BME280;45943;53.148;8.204;2024-03-29T04:29:58;99279.06;;;11.35;83.52
49216;BME280;45943;53.148;8.204;2024-03-29T04:32:24;99280.72;;;11.36;83.35
49216;BME280;45943;53.148;8.204;2024-03-29T04:34:50;99285.09;;;11.45;83.36
49216;BME280;45943;53.148;8.204;2024-03-29T04:37:17;99284.44;;;11.43;83.33
49216;BME280;45943;53.148;8.204;2024-03-29T04:39:43;99284.91;;;11.39;82.76
49216;BME280;45943;53.148;8.204;2024-03-29T04:42:10;99291.28;;;11.38;83.11
49216;BME280;45943;53.148;8.204;2024-03-29T04:44:37;99283.59;;;11.35;82.74
49216;BME280;45943;53.148;8.204;2024-03-29T04:47:03;99286.28;;;11.51;82.05
49216;BME280;45943;53.148;8.204;2024-03-29T04:49:29;99296.00;;;11.44;81.99
49216;BME280;45943;53.148;8.204;2024-03-29T04:52:03;99296.34;;;11.49;80.60
49216;BME280;45943;53.148;8.204;2024-03-29T04:54:30;99289.28;;;11.48;80.74
49216;BME280;45943;53.148;8.204;2024-03-29T04:56:56;99297.03;;;11.51;80.68
49216;BME280;45943;53.148;8.204;2024-03-29T04:59:22;99301.38;;;11.52;81.01
49216;BME280;45943;53.148;8.204;2024-03-29T05:01:48;99300.84;;;11.40;81.31
49216;BME280;45943;53.148;8.204;2024-03-29T05:04:16;99311.28;;;11.52;80.65
49216;BME280;45943;53.148;8.204;2024-03-29T05:06:44;99314.28;;;11.40;81.20
49216;BME280;45943;53.148;8.204;2024-03-29T05:09:11;99307.59;;;11.53;81.25
49216;BME280;45943;53.148;8.204;2024-03-29T05:11:37;99315.66;;;11.61;80.01
49216;BME280;45943;53.148;8.204;2024-03-29T05:14:03;99319.66;;;11.40;80.59
49216;BME280;45943;53.148;8.204;2024-03-29T05:16:29;99321.53;;;11.56;80.52
49216;BME280;45943;53.148;8.204;2024-03-29T05:18:55;99320.84;;;11.46;79.71
49216;BME280;45943;53.148;8.204;2024-03-29T05:21:22;99331.44;;;11.56;80.28
49216;BME280;45943;53.148;8.204;2024-03-29T05:23:48;99333.63;;;11.52;80.35
49216;BME280;45943;53.148;8.204;2024-03-29T05:26:14;99320.19;;;11.44;80.79
49216;BME280;45943;53.148;8.204;2024-03-29T05:28:40;99328.06;;;11.54;80.70
49216;BME280;45943;53.148;8.204;2024-03-29T05:31:11;99332.41;;;11.46;80.28
49216;BME280;45943;53.148;8.204;2024-03-29T05:33:40;99331.44;;;11.64;79.88
49216;BME280;45943;53.148;8.204;2024-03-29T05:36:06;99329.06;;;11.69;79.47
49216;BME280;45943;53.148;8.204;2024-03-29T05:38:34;99336.78;;;11.56;79.33
49216;BME280;45943;53.148;8.204;2024-03-29T05:41:00;99332.94;;;11.66;79.08
49216;BME280;45943;53.148;8.204;2024-03-29T05:43:26;99341.69;;;11.60;79.06
49216;BME280;45943;53.148;8.204;2024-03-29T05:45:52;99349.25;;;11.73;78.36
49216;BME280;45943;53.148;8.204;2024-03-29T05:48:19;99360.63;;;11.67;78.56
49216;BME280;45943;53.148;8.204;2024-03-29T05:50:45;99370.91;;;11.80;77.97
49216;BME280;45943;53.148;8.204;2024-03-29T05:53:11;99362.13;;;11.69;78.42
49216;BME280;45943;53.148;8.204;2024-03-29T05:55:37;99358.44;;;11.78;77.85
49216;BME280;45943;53.148;8.204;2024-03-29T05:58:03;99376.63;;;11.93;76.93
49216;BME280;45943;53.148;8.204;2024-03-29T06:00:32;99383.88;;;12.00;76.04
49216;BME280;45943;53.148;8.204;2024-03-29T06:03:01;99368.59;;;11.93;76.79
49216;BME280;45943;53.148;8.204;2024-03-29T06:05:30;99368.06;;;11.97;77.05
49216;BME280;45943;53.148;8.204;2024-03-29T06:07:56;99365.66;;;11.70;78.86
49216;BME280;45943;53.148;8.204;2024-03-29T06:10:22;99375.63;;;11.86;79.45
49216;BME280;45943;53.148;8.204;2024-03-29T06:12:48;99382.63;;;11.78;80.92
49216;BME280;45943;53.148;8.204;2024-03-29T06:15:14;99383.63;;;11.77;83.19
49216;BME280;45943;53.148;8.204;2024-03-29T06:17:59;99378.00;;;11.81;85.07
49216;BME280;45943;53.148;8.204;2024-03-29T06:20:25;99395.06;;;11.71;88.29
49216;BME280;45943;53.148;8.204;2024-03-29T06:22:51;99382.13;;;11.75;91.20
49216;BME280;45943;53.148;8.204;2024-03-29T06:25:17;99393.53;;;11.77;92.32
49216;BME280;45943;53.148;8.204;2024-03-29T06:27:43;99404.63;;;11.66;93.88
49216;BME280;45943;53.148;8.204;2024-03-29T06:30:13;99395.22;;;11.78;94.70
49216;BME280;45943;53.148;8.204;2024-03-29T06:32:41;99411.72;;;11.83;95.36
49216;BME280;45943;53.148;8.204;2024-03-29T06:35:07;99414.03;;;11.78;96.91
49216;BME280;45943;53.148;8.204;2024-03-29T06:37:33;99406.47;;;11.73;99.22
49216;BME280;45943;53.148;8.204;2024-03-29T06:39:59;99417.03;;;11.67;100.00
49216;BME280;45943;53.148;8.204;2024-03-29T06:42:25;99413.72;;;11.73;100.00
49216;BME280;45943;53.148;8.204;2024-03-29T06:44:51;99430.13;;;11.62;100.00
49216;BME280;45943;53.148;8.204;2024-03-29T06:47:20;99454.97;;;11.56;100.00
49216;BME280;45943;53.148;8.204;2024-03-29T06:49:46;99435.50;;;11.54;100.00
49216;BME280;45943;53.148;8.204;2024-03-29T06:52:12;99428.91;;;11.48;100.00
49216;BME280;45943;53.148;8.204;2024-03-29T06:54:38;99446.50;;;11.34;100.00
49216;BME280;45943;53.148;8.204;2024-03-29T06:57:04;99450.91;;;11.43;100.00
49216;BME280;45943;53.148;8.204;2024-03-29T06:59:30;99459.94;;;11.34;100.00
49216;BME280;45943;53.148;8.204;2024-03-29T07:01:56;99457.00;;;11.19;100.00
49216;BME280;45943;53.148;8.204;2024-03-29T07:04:23;99455.44;;;11.09;100.00
49216;BME280;45943;53.148;8.204;2024-03-29T07:06:50;99464.03;;;11.20;100.00
49216;BME280;45943;53.148;8.204;2024-03-29T07:09:20;99477.47;;;11.12;100.00
49216;BME280;45943;53.148;8.204;2024-03-29T07:11:47;99480.38;;;10.93;100.00
49216;BME280;45943;53.148;8.204;2024-03-29T07:14:15;99475.50;;;11.23;100.00
49216;BME280;45943;53.148;8.204;2024-03-29T07:16:42;99483.63;;;11.05;100.00
49216;BME280;45943;53.148;8.204;2024-03-29T07:19:09;99475.84;;;10.94;100.00
49216;BME280;45943;53.148;8.204;2024-03-29T07:21:38;99483.94;;;11.02;100.00
49216;BME280;45943;53.148;8.204;2024-03-29T07:24:05;99485.69;;;11.19;100.00
49216;BME280;45943;53.148;8.204;2024-03-29T07:26:32;99485.91;;;11.26;100.00
49216;BME280;45943;53.148;8.204;2024-03-29T07:28:58;99479.19;;;11.22;100.00
49216;BME280;45943;53.148;8.204;2024-03-29T07:31:24;99485.00;;;11.17;100.00
49216;BME280;45943;53.148;8.204;2024-03-29T07:33:50;99483.72;;;11.21;100.00
49216;BME280;45943;53.148;8.204;2024-03-29T07:36:16;99496.31;;;11.29;100.00
49216;BME280;45943;53.148;8.204;2024-03-29T07:38:42;99489.16;;;11.45;100.00
49216;BME280;45943;53.148;8.204;2024-03-29T07:41:09;99477.41;;;11.46;100.00
49216;BME280;45943;53.148;8.204;2024-03-29T07:43:39;99487.34;;;11.54;100.00
49216;BME280;45943;53.148;8.204;2024-03-29T07:46:06;99483.47;;;11.48;100.00
49216;BME280;45943;53.148;8.204;2024-03-29T07:48:34;99477.91;;;11.50;100.00
49216;BME280;45943;53.148;8.204;2024-03-29T07:51:01;99475.94;;;11.52;100.00
49216;BME280;45943;53.148;8.204;2024-03-29T07:53:27;99477.78;;;11.52;100.00
49216;BME280;45943;53.148;8.204;2024-03-29T07:55:53;99462.50;;;11.52;100.00
49216;BME280;45943;53.148;8.204;2024-03-29T07:58:19;99468.56;;;11.54;100.00
49216;BME280;45943;53.148;8.204;2024-03-29T08:00:45;99457.78;;;11.46;100.00
49216;BME280;45943;53.148;8.204;2024-03-29T08:03:11;99451.94;;;11.51;100.00
49216;BME280;45943;53.148;8.204;2024-03-29T08:05:37;99444.56;;;11.61;100.00
49216;BME280;45943;53.148;8.204;2024-03-29T08:08:03;99432.16;;;11.68;100.00
49216;BME280;45943;53.148;8.204;2024-03-29T08:10:30;99440.22;;;11.76;100.00
49216;BME280;45943;53.148;8.204;2024-03-29T08:12:56;99444.41;;;11.78;100.00
49216;BME280;45943;53.148;8.204;2024-03-29T08:15:22;99445.16;;;11.81;100.00
49216;BME280;45943;53.148;8.204;2024-03-29T08:17:48;99447.00;;;11.80;100.00
49216;BME280;45943;53.148;8.204;2024-03-29T08:20:14;99455.72;;;11.82;100.00
49216;BME280;45943;53.148;8.204;2024-03-29T08:22:40;99449.69;;;11.88;100.00
49216;BME280;45943;53.148;8.204;2024-03-29T08:25:06;99445.69;;;12.00;100.00
49216;BME280;45943;53.148;8.204;2024-03-29T08:27:34;99446.19;;;12.04;100.00
49216;BME280;45943;53.148;8.204;2024-03-29T08:30:00;99450.38;;;12.06;100.00
49216;BME280;45943;53.148;8.204;2024-03-29T08:32:26;99441.81;;;12.11;100.00
49216;BME280;45943;53.148;8.204;2024-03-29T08:34:52;99451.72;;;12.11;100.00
49216;BME280;45943;53.148;8.204;2024-03-29T08:37:18;99446.34;;;12.11;100.00
49216;BME280;45943;53.148;8.204;2024-03-29T08:39:44;99451.03;;;12.09;100.00
49216;BME280;45943;53.148;8.204;2024-03-29T08:42:10;99454.06;;;12.05;100.00
49216;BME280;45943;53.148;8.204;2024-03-29T08:44:37;99444.50;;;12.11;100.00
49216;BME280;45943;53.148;8.204;2024-03-29T08:47:04;99441.47;;;12.06;100.00
49216;BME280;45943;53.148;8.204;2024-03-29T08:49:31;99436.44;;;12.11;100.00
49216;BME280;45943;53.148;8.204;2024-03-29T08:51:57;99451.38;;;12.14;100.00
49216;BME280;45943;53.148;8.204;2024-03-29T08:54:25;99463.81;;;12.06;100.00
49216;BME280;45943;53.148;8.204;2024-03-29T08:56:51;99458.13;;;12.10;100.00
49216;BME280;45943;53.148;8.204;2024-03-29T08:59:17;99457.75;;;12.04;100.00
49216;BME280;45943;53.148;8.204;2024-03-29T09:01:44;99463.78;;;11.98;100.00
49216;BME280;45943;53.148;8.204;2024-03-29T09:04:11;99453.41;;;12.03;100.00
49216;BME280;45943;53.148;8.204;2024-03-29T09:06:37;99448.53;;;12.07;100.00
49216;BME280;45943;53.148;8.204;2024-03-29T09:09:04;99452.75;;;12.10;100.00
49216;BME280;45943;53.148;8.204;2024-03-29T09:11:30;99455.25;;;12.11;100.00
49216;BME280;45943;53.148;8.204;2024-03-29T09:13:56;99446.03;;;12.22;100.00
49216;BME280;45943;53.148;8.204;2024-03-29T09:16:24;99449.72;;;12.21;100.00
49216;BME280;45943;53.148;8.204;2024-03-29T09:18:51;99452.91;;;12.24;100.00
49216;BME280;45943;53.148;8.204;2024-03-29T09:21:17;99471.41;;;12.19;100.00
49216;BME280;45943;53.148;8.204;2024-03-29T09:23:45;99464.31;;;12.26;100.00
49216;BME280;45943;53.148;8.204;2024-03-29T09:26:11;99461.28;;;12.46;100.00
49216;BME280;45943;53.148;8.204;2024-03-29T09:28:39;99456.44;;;12.49;100.00
49216;BME280;45943;53.148;8.204;2024-03-29T09:31:06;99440.13;;;12.59;100.00
49216;BME280;45943;53.148;8.204;2024-03-29T09:33:32;99441.91;;;12.67;100.00
49216;BME280;45943;53.148;8.204;2024-03-29T09:35:58;99432.50;;;12.79;100.00
49216;BME280;45943;53.148;8.204;2024-03-29T09:38:25;99424.56;;;12.85;100.00
49216;BME280;45943;53.148;8.204;2024-03-29T09:41:10;99429.44;;;12.90;100.00
49216;BME280;45943;53.148;8.204;2024-03-29T09:43:43;99441.03;;;12.99;100.00
49216;BME280;45943;53.148;8.204;2024-03-29T09:46:16;99451.06;;;13.05;100.00
49216;BME280;45943;53.148;8.204;2024-03-29T09:48:43;99449.59;;;13.02;100.00
49216;BME280;45943;53.148;8.204;2024-03-29T09:51:13;99433.66;;;12.76;100.00
49216;BME280;45943;53.148;8.204;2024-03-29T09:53:40;99417.31;;;12.86;100.00
49216;BME280;45943;53.148;8.204;2024-03-29T09:56:07;99421.84;;;12.93;100.00
49216;BME280;45943;53.148;8.204;2024-03-29T09:58:34;99427.88;;;12.96;100.00
49216;BME280;45943;53.148;8.204;2024-03-29T10:01:02;99425.34;;;13.02;100.00
49216;BME280;45943;53.148;8.204;2024-03-29T10:03:29;99428.88;;;13.03;100.00
49216;BME280;45943;53.148;8.204;2024-03-29T10:05:56;99421.69;;;12.87;100.00
49216;BME280;45943;53.148;8.204;2024-03-29T10:08:27;99420.84;;;12.95;100.00
49216;BME280;45943;53.148;8.204;2024-03-29T10:10:56;99425.72;;;12.99;100.00
49216;BME280;45943;53.148;8.204;2024-03-29T10:13:25;99430.06;;;13.08;100.00
49216;BME280;45943;53.148;8.204;2024-03-29T10:15:51;99430.19;;;13.07;100.00
49216;BME280;45943;53.148;8.204;2024-03-29T10:18:21;99436.78;;;13.04;100.00
49216;BME280;45943;53.148;8.204;2024-03-29T10:20:59;99445.03;;;13.19;100.00
49216;BME280;45943;53.148;8.204;2024-03-29T10:23:27;99428.66;;;13.29;100.00
49216;BME280;45943;53.148;8.204;2024-03-29T10:25:53;99420.91;;;13.26;100.00
49216;BME280;45943;53.148;8.204;2024-03-29T10:28:19;99417.88;;;13.60;100.00
49216;BME280;45943;53.148;8.204;2024-03-29T10:30:46;99414.28;;;14.13;100.00
49216;BME280;45943;53.148;8.204;2024-03-29T10:33:12;99409.72;;;14.37;100.00
49216;BME280;45943;53.148;8.204;2024-03-29T10:35:42;99405.38;;;14.50;100.00
49216;BME280;45943;53.148;8.204;2024-03-29T10:38:09;99413.41;;;14.58;100.00
49216;BME280;45943;53.148;8.204;2024-03-29T10:40:38;99407.28;;;14.42;100.00
49216;BME280;45943;53.148;8.204;2024-03-29T10:43:09;99416.19;;;14.27;100.00
49216;BME280;45943;53.148;8.204;2024-03-29T10:45:39;99421.78;;;14.41;100.00
49216;BME280;45943;53.148;8.204;2024-03-29T10:48:05;99421.56;;;14.50;100.00
49216;BME280;45943;53.148;8.204;2024-03-29T10:50:38;99428.84;;;14.27;100.00
49216;BME280;45943;53.148;8.204;2024-03-29T10:53:06;99417.63;;;14.38;100.00
49216;BME280;45943;53.148;8.204;2024-03-29T10:55:33;99420.13;;;14.40;100.00
49216;BME280;45943;53.148;8.204;2024-03-29T10:58:00;99424.38;;;14.34;100.00
49216;BME280;45943;53.148;8.204;2024-03-29T11:00:33;99436.44;;;14.23;100.00
49216;BME280;45943;53.148;8.204;2024-03-29T11:03:12;99445.31;;;14.32;100.00
49216;BME280;45943;53.148;8.204;2024-03-29T11:05:47;99436.16;;;14.18;100.00
49216;BME280;45943;53.148;8.204;2024-03-29T11:08:16;99438.31;;;14.23;100.00
49216;BME280;45943;53.148;8.204;2024-03-29T11:10:47;99424.94;;;14.29;100.00
49216;BME280;45943;53.148;8.204;2024-03-29T11:13:21;99417.84;;;14.51;100.00
49216;BME280;45943;53.148;8.204;2024-03-29T11:15:54;99409.28;;;14.62;100.00
49216;BME280;45943;53.148;8.204;2024-03-29T11:18:20;99407.00;;;14.89;100.00
49216;BME280;45943;53.148;8.204;2024-03-29T11:20:50;99400.84;;;15.10;97.57
49216;BME280;45943;53.148;8.204;2024-03-29T11:23:18;99401.28;;;15.28;95.56
49216;BME280;45943;53.148;8.204;2024-03-29T11:25:48;99406.03;;;15.11;93.19
49216;BME280;45943;53.148;8.204;2024-03-29T11:28:22;99425.50;;;15.21;94.47
49216;BME280;45943;53.148;8.204;2024-03-29T11:31:02;99439.03;;;15.07;93.30
49216;BME280;45943;53.148;8.204;2024-03-29T11:36:00;99432.69;;;14.85;96.82
49216;BME280;45943;53.148;8.204;2024-03-29T11:38:35;99425.72;;;14.76;99.11
49216;BME280;45943;53.148;8.204;2024-03-29T11:41:14;99422.63;;;14.79;100.00
49216;BME280;45943;53.148;8.204;2024-03-29T11:43:41;99424.59;;;14.85;100.00
49216;BME280;45943;53.148;8.204;2024-03-29T11:46:09;99416.47;;;15.29;96.98
49216;BME280;45943;53.148;8.204;2024-03-29T11:48:39;99426.97;;;15.54;92.94
49216;BME280;45943;53.148;8.204;2024-03-29T11:51:06;99421.03;;;15.80;91.46
49216;BME280;45943;53.148;8.204;2024-03-29T11:53:35;99426.31;;;15.88;90.03
49216;BME280;45943;53.148;8.204;2024-03-29T11:56:02;99434.94;;;15.76;87.32
49216;BME280;45943;53.148;8.204;2024-03-29T11:58:29;99439.00;;;15.87;90.09
49216;BME280;45943;53.148;8.204;2024-03-29T12:00:57;99440.03;;;15.86;88.75
49216;BME280;45943;53.148;8.204;2024-03-29T12:03:25;99450.06;;;15.92;91.26
49216;BME280;45943;53.148;8.204;2024-03-29T12:05:52;99464.06;;;15.96;87.77
49216;BME280;45943;53.148;8.204;2024-03-29T12:08:21;99436.00;;;15.82;86.42
49216;BME280;45943;53.148;8.204;2024-03-29T12:10:47;99455.44;;;16.07;87.95
49216;BME280;45943;53.148;8.204;2024-03-29T12:13:15;99450.22;;;16.27;86.80
49216;BME280;45943;53.148;8.204;2024-03-29T12:15:41;99464.13;;;16.45;84.97
49216;BME280;45943;53.148;8.204;2024-03-29T12:18:08;99453.59;;;16.57;86.41
49216;BME280;45943;53.148;8.204;2024-03-29T12:20:37;99440.53;;;16.67;81.98
49216;BME280;45943;53.148;8.204;2024-03-29T12:23:08;99435.13;;;16.18;79.71
49216;BME280;45943;53.148;8.204;2024-03-29T12:25:38;99451.28;;;16.11;81.71
49216;BME280;45943;53.148;8.204;2024-03-29T12:28:05;99448.84;;;16.38;79.04
49216;BME280;45943;53.148;8.204;2024-03-29T12:30:32;99454.44;;;16.36;78.70
49216;BME280;45943;53.148;8.204;2024-03-29T12:35:29;99450.34;;;16.96;80.38
49216;BME280;45943;53.148;8.204;2024-03-29T12:37:57;99451.97;;;17.25;76.23
49216;BME280;45943;53.148;8.204;2024-03-29T12:40:27;99459.44;;;17.16;76.06
49216;BME280;45943;53.148;8.204;2024-03-29T12:42:55;99464.25;;;16.86;76.00
49216;BME280;45943;53.148;8.204;2024-03-29T12:45:23;99458.94;;;16.50;77.87
49216;BME280;45943;53.148;8.204;2024-03-29T12:47:50;99449.16;;;16.28;81.92
49216;BME280;45943;53.148;8.204;2024-03-29T12:50:19;99456.78;;;16.18;82.04
49216;BME280;45943;53.148;8.204;2024-03-29T12:52:52;99448.84;;;16.16;81.34
49216;BME280;45943;53.148;8.204;2024-03-29T12:55:23;99450.72;;;16.37;83.51
49216;BME280;45943;53.148;8.204;2024-03-29T12:57:50;99446.44;;;16.49;80.54
49216;BME280;45943;53.148;8.204;2024-03-29T13:00:20;99461.22;;;16.47;80.06
49216;BME280;45943;53.148;8.204;2024-03-29T13:02:46;99470.38;;;16.24;79.70